Terminal Aerodrome Forecast
Issued by NWS

Home | Current Version | Previous Version | Text Only | Print | Product List | Glossary On
Versions: 1 2 3 4 5 6 7 8 9 10 11 12 13 14 15 16 17 18 19 20 21 22 23 24 25 26 27 28 29 30 31
000
FTUS41 KPHI 251741
TAFMIV
TAF
KMIV 251741Z 2518/2618 25003KT P6SM OVC004
      TEMPO 2518/2520 5SM -RA
     FM252000 27005KT P6SM VCSH BKN015
     FM252100 28006KT P6SM BKN020
     FM252200 28005KT P6SM BKN045
     FM260100 VRB02KT P6SM BKN080
      TEMPO 2606/2609 3SM BR
     FM261300 33007KT P6SM BKN090=

USA.gov is the U.S. government's official web portal to all federal, state and local government web resources and services.